Time;durP1;ratioP1;P1;durP2;ratioP2;P2;SDS_P1;SDS_P2;PMS_P1;PMS_P2;Temp;Humidity;BMP_temperature;BMP_pressure;BME280_temperature;BME280_humidity;BME280_pressure;Samples;Min_cycle;Max_cycle;Signal;HPM_P1;HPM_P2
2023/06/02 00:01:15;;;;;;;3.00;1.75;;;21.60;71.30;;;;;;5095591;28;20213;-82
2023/06/02 00:03:44;;;;;;;2.60;1.92;;;21.60;72.10;;;;;;5102541;28;20621;-82
2023/06/02 00:06:15;;;;;;;2.17;1.77;;;21.50;71.60;;;;;;5098289;28;20640;-81
2023/06/02 00:08:45;;;;;;;4.80;1.65;;;21.50;71.90;;;;;;5106437;27;20196;-82
2023/06/02 00:11:14;;;;;;;4.07;1.98;;;21.50;72.10;;;;;;5106877;28;20240;-82
2023/06/02 00:13:43;;;;;;;4.07;1.60;;;21.50;71.90;;;;;;5115918;27;20626;-82
2023/06/02 00:16:12;;;;;;;2.28;1.35;;;21.40;71.70;;;;;;5100345;27;20212;-80
2023/06/02 00:18:43;;;;;;;3.53;1.55;;;21.40;72.00;;;;;;5103230;28;20195;-81
2023/06/02 00:21:12;;;;;;;3.25;1.50;;;21.40;72.30;;;;;;5105489;27;20663;-82
2023/06/02 00:23:40;;;;;;;2.55;1.50;;;21.30;72.40;;;;;;5112019;27;20194;-82
2023/06/02 00:26:10;;;;;;;1.50;1.40;;;21.30;72.40;;;;;;5103486;27;20198;-82
2023/06/02 00:28:38;;;;;;;2.75;1.67;;;21.30;72.40;;;;;;5097994;28;20204;-83
2023/06/02 00:31:07;;;;;;;3.35;1.40;;;21.30;72.50;;;;;;5094422;27;20553;-82
2023/06/02 00:33:35;;;;;;;2.28;1.42;;;21.20;72.40;;;;;;5104565;27;20280;-82
2023/06/02 00:36:04;;;;;;;2.25;1.75;;;21.20;72.60;;;;;;5101719;28;20224;-83
2023/06/02 00:38:32;;;;;;;1.88;1.15;;;21.20;72.60;;;;;;5106772;27;20205;-82
2023/06/02 00:41:01;;;;;;;1.75;1.20;;;21.20;72.50;;;;;;5111333;27;20201;-83
2023/06/02 00:43:31;;;;;;;1.98;1.77;;;21.10;72.50;;;;;;5092354;28;20559;-82
2023/06/02 00:45:59;;;;;;;3.85;1.23;;;21.10;72.60;;;;;;5104680;27;20229;-82
2023/06/02 00:48:27;;;;;;;2.33;1.67;;;21.10;72.70;;;;;;5106559;27;20695;-83
2023/06/02 00:50:56;;;;;;;1.65;1.08;;;21.10;72.80;;;;;;5104842;27;20207;-82
2023/06/02 00:53:24;;;;;;;9.77;1.92;;;21.10;72.90;;;;;;5107417;27;20186;-81
2023/06/02 00:55:53;;;;;;;2.92;1.88;;;21.10;72.90;;;;;;5109514;27;20594;-82
2023/06/02 00:58:22;;;;;;;3.33;2.17;;;21.00;72.90;;;;;;5095626;27;20194;-81
2023/06/02 01:00:52;;;;;;;1.90;1.27;;;21.00;73.10;;;;;;5102074;27;20258;-83
2023/06/02 01:03:24;;;;;;;2.25;1.52;;;21.00;73.10;;;;;;5109985;27;20200;-82
2023/06/02 01:05:56;;;;;;;4.85;1.60;;;21.00;73.40;;;;;;5112476;27;20188;-82
2023/06/02 01:08:25;;;;;;;1.57;1.20;;;21.00;73.30;;;;;;5104642;27;20185;-82
2023/06/02 01:10:55;;;;;;;7.20;1.80;;;21.00;73.30;;;;;;5103693;27;20190;-81
2023/06/02 01:13:24;;;;;;;4.00;1.40;;;21.00;73.30;;;;;;5104212;27;20196;-82
2023/06/02 01:15:54;;;;;;;3.33;2.00;;;21.00;73.40;;;;;;5098527;28;20229;-83
2023/06/02 01:18:25;;;;;;;2.33;1.20;;;21.00;73.30;;;;;;5101215;28;20204;-83
2023/06/02 01:20:57;;;;;;;6.28;2.28;;;21.00;73.70;;;;;;5096523;28;20192;-83
2023/06/02 01:23:31;;;;;;;7.82;2.33;;;21.00;74.20;;;;;;5103184;28;20197;-83
2023/06/02 01:26:02;;;;;;;3.97;1.52;;;21.00;74.10;;;;;;5094049;28;20197;-83
2023/06/02 01:28:30;;;;;;;2.50;1.35;;;21.00;73.90;;;;;;5096244;28;20280;-82
2023/06/02 01:31:03;;;;;;;4.72;1.95;;;21.00;74.00;;;;;;5092691;28;20198;-83
2023/06/02 01:33:36;;;;;;;4.00;2.58;;;21.00;74.00;;;;;;5100587;28;20200;-83
2023/06/02 01:36:06;;;;;;;3.83;2.35;;;21.00;74.10;;;;;;5096062;27;20209;-83
2023/06/02 01:38:36;;;;;;;3.22;1.35;;;21.00;73.90;;;;;;5095119;28;20240;-82
2023/06/02 01:41:07;;;;;;;4.68;1.83;;;21.00;73.90;;;;;;5099938;28;20186;-83
2023/06/02 01:43:36;;;;;;;1.92;1.77;;;21.00;73.90;;;;;;5099209;28;20194;-81
2023/06/02 01:46:06;;;;;;;4.57;1.90;;;21.00;74.00;;;;;;5099418;27;20558;-82
2023/06/02 01:48:35;;;;;;;3.13;1.13;;;21.00;74.00;;;;;;5089480;28;20299;-81
2023/06/02 01:51:03;;;;;;;2.13;1.58;;;20.90;73.90;;;;;;5101512;28;20186;-81
2023/06/02 01:53:32;;;;;;;2.87;1.93;;;20.90;73.90;;;;;;5102936;28;20182;-82
2023/06/02 01:56:00;;;;;;;4.57;2.50;;;21.00;74.10;;;;;;5105053;28;20224;-82
2023/06/02 01:58:31;;;;;;;1.97;1.57;;;20.90;74.10;;;;;;5107257;28;20594;-82
2023/06/02 02:01:00;;;;;;;1.73;1.38;;;20.90;74.30;;;;;;5101989;28;20212;-81
2023/06/02 02:03:29;;;;;;;2.92;0.95;;;20.90;74.40;;;;;;5100543;28;20272;-81
2023/06/02 02:05:58;;;;;;;7.45;2.05;;;20.90;74.40;;;;;;5097174;28;20604;-83
2023/06/02 02:08:26;;;;;;;4.80;1.87;;;20.80;74.40;;;;;;5093735;28;20194;-81
2023/06/02 02:10:54;;;;;;;2.97;1.30;;;20.80;74.50;;;;;;5097071;28;20205;-81
2023/06/02 02:13:22;;;;;;;1.20;1.10;;;20.80;74.60;;;;;;5094709;28;20197;-82
2023/06/02 02:15:52;;;;;;;5.50;2.40;;;20.70;74.50;;;;;;5095122;28;20224;-80
2023/06/02 02:18:24;;;;;;;1.77;1.33;;;20.70;74.70;;;;;;5099041;28;20193;-83
2023/06/02 02:20:53;;;;;;;1.37;1.23;;;20.70;74.80;;;;;;5106047;28;20186;-82
2023/06/02 02:23:21;;;;;;;2.13;1.43;;;20.70;74.80;;;;;;5093681;28;20197;-83
2023/06/02 02:25:49;;;;;;;1.20;1.07;;;20.60;74.90;;;;;;5093218;28;20568;-83
2023/06/02 02:28:18;;;;;;;2.50;1.40;;;20.60;75.00;;;;;;5112260;28;20213;-82
2023/06/02 02:30:46;;;;;;;4.93;1.40;;;20.60;75.00;;;;;;5101389;27;20201;-82
2023/06/02 02:33:16;;;;;;;4.20;2.10;;;20.60;75.10;;;;;;5115937;27;20202;-83
2023/06/02 02:35:45;;;;;;;3.77;1.90;;;20.60;75.00;;;;;;5102571;27;20205;-82
2023/06/02 02:38:14;;;;;;;5.50;2.07;;;20.50;75.10;;;;;;5101061;28;20202;-82
2023/06/02 02:40:42;;;;;;;1.60;1.47;;;20.50;75.10;;;;;;5105901;27;20662;-80
2023/06/02 02:43:10;;;;;;;2.93;1.50;;;20.50;75.20;;;;;;5106724;28;20644;-82
2023/06/02 02:45:39;;;;;;;2.63;1.43;;;20.50;75.20;;;;;;5104524;28;20682;-81
2023/06/02 02:48:08;;;;;;;3.43;2.20;;;20.50;75.40;;;;;;5107094;28;20229;-81
2023/06/02 02:50:38;;;;;;;1.70;1.50;;;20.40;75.50;;;;;;5102020;27;20194;-81
2023/06/02 02:53:06;;;;;;;1.47;1.13;;;20.40;75.60;;;;;;5109009;27;20192;-83
2023/06/02 02:55:37;;;;;;;1.97;1.10;;;20.40;75.60;;;;;;5095930;27;20243;-81
2023/06/02 02:58:07;;;;;;;5.67;1.50;;;20.40;76.40;;;;;;5105673;27;20193;-81
2023/06/02 03:00:35;;;;;;;3.23;1.43;;;20.40;75.70;;;;;;5106183;27;20231;-82
2023/06/02 03:03:05;;;;;;;1.07;0.97;;;20.40;75.80;;;;;;5103324;27;20228;-82
2023/06/02 03:05:34;;;;;;;1.00;0.90;;;20.40;75.90;;;;;;5095493;28;20190;-81
2023/06/02 03:08:06;;;;;;;5.63;1.87;;;20.30;75.90;;;;;;5102560;27;20193;-82
2023/06/02 03:10:35;;;;;;;1.80;1.20;;;20.30;76.30;;;;;;5111805;27;20548;-82
2023/06/02 03:13:03;;;;;;;3.13;1.47;;;20.30;76.40;;;;;;5098344;27;20203;-81
2023/06/02 03:15:33;;;;;;;3.07;2.00;;;20.30;76.30;;;;;;5104045;28;20551;-81
2023/06/02 03:18:03;;;;;;;6.30;1.67;;;20.30;76.60;;;;;;5099335;27;20229;-81
2023/06/02 03:20:32;;;;;;;2.33;1.73;;;20.30;76.70;;;;;;5100557;27;20224;-82
2023/06/02 03:23:00;;;;;;;7.87;2.40;;;20.30;76.70;;;;;;5099448;27;20194;-82
2023/06/02 03:25:30;;;;;;;1.50;1.03;;;20.30;76.80;;;;;;5095663;28;20232;-82
2023/06/02 03:27:59;;;;;;;3.97;2.43;;;20.30;76.90;;;;;;5096291;28;20198;-82
2023/06/02 03:30:27;;;;;;;2.67;1.90;;;20.40;77.00;;;;;;5099872;28;20186;-83
2023/06/02 03:32:55;;;;;;;2.50;1.47;;;20.30;77.50;;;;;;5106707;27;20190;-81
2023/06/02 03:35:24;;;;;;;3.30;1.67;;;20.30;77.80;;;;;;5093930;28;20680;-82
2023/06/02 03:37:52;;;;;;;2.67;1.70;;;20.30;77.70;;;;;;5102188;27;20350;-83
2023/06/02 03:40:21;;;;;;;1.00;0.73;;;20.40;77.70;;;;;;5097121;28;20663;-83
2023/06/02 03:42:50;;;;;;;4.07;2.10;;;20.40;77.60;;;;;;5099939;28;20198;-82
2023/06/02 03:45:19;;;;;;;2.40;1.50;;;20.40;77.80;;;;;;5106599;27;20480;-82
2023/06/02 03:47:47;;;;;;;0.97;0.93;;;20.40;77.80;;;;;;5109636;27;20228;-83
2023/06/02 03:50:15;;;;;;;2.87;1.50;;;20.50;78.10;;;;;;5097375;28;20275;-83
2023/06/02 03:52:44;;;;;;;1.37;1.17;;;20.50;78.20;;;;;;5104442;28;20506;-83
2023/06/02 03:55:12;;;;;;;1.57;1.13;;;20.50;78.20;;;;;;5101259;27;20204;-82
2023/06/02 03:57:42;;;;;;;4.43;2.53;;;20.60;78.30;;;;;;5108342;28;20221;-82
2023/06/02 04:00:13;;;;;;;6.63;1.57;;;20.60;78.30;;;;;;5106023;28;20185;-81
2023/06/02 04:02:41;;;;;;;5.75;2.78;;;20.70;78.60;;;;;;5117930;27;20190;-82
2023/06/02 04:05:11;;;;;;;7.88;2.60;;;20.70;78.90;;;;;;5108453;27;20197;-82
2023/06/02 04:07:40;;;;;;;2.63;1.60;;;20.70;78.80;;;;;;5093758;28;20200;-82
2023/06/02 04:10:09;;;;;;;9.77;2.58;;;20.80;79.10;;;;;;5094852;28;20232;-81
2023/06/02 04:12:37;;;;;;;2.10;1.83;;;20.80;79.40;;;;;;5108253;27;20551;-81
2023/06/02 04:15:06;;;;;;;4.47;1.77;;;20.90;79.70;;;;;;5098746;27;20192;-80
2023/06/02 04:17:36;;;;;;;3.60;2.30;;;20.90;79.50;;;;;;5104728;27;20208;-83
2023/06/02 04:20:05;;;;;;;2.92;1.83;;;20.90;79.40;;;;;;5100102;27;20645;-82
2023/06/02 04:22:35;;;;;;;8.20;2.20;;;21.00;79.50;;;;;;5095325;27;20190;-83
2023/06/02 04:25:04;;;;;;;4.63;2.47;;;21.00;79.60;;;;;;5094135;28;20190;-81
2023/06/02 04:27:32;;;;;;;4.43;2.13;;;21.10;79.80;;;;;;5092906;27;20197;-82
2023/06/02 04:30:01;;;;;;;4.25;1.85;;;21.10;79.70;;;;;;5094541;27;20190;-82
2023/06/02 04:32:30;;;;;;;5.38;2.42;;;21.20;79.70;;;;;;5100829;27;20201;-83
2023/06/02 04:35:00;;;;;;;2.42;1.38;;;21.20;79.50;;;;;;5098359;27;20189;-83
2023/06/02 04:37:28;;;;;;;5.72;2.17;;;21.30;79.50;;;;;;5106052;27;20563;-82
2023/06/02 04:39:57;;;;;;;2.05;1.20;;;21.30;79.50;;;;;;5093553;28;20225;-84
2023/06/02 04:42:25;;;;;;;3.55;1.77;;;21.30;80.20;;;;;;5093581;28;20196;-82
2023/06/02 04:44:53;;;;;;;2.90;1.85;;;21.40;79.60;;;;;;5097491;28;20196;-83
2023/06/02 04:47:22;;;;;;;3.90;2.10;;;21.50;79.50;;;;;;5095888;28;20228;-83
2023/06/02 04:49:50;;;;;;;3.13;1.90;;;21.50;79.30;;;;;;5096178;28;20219;-84
2023/06/02 04:52:20;;;;;;;3.13;1.80;;;21.50;79.10;;;;;;5098430;28;20193;-82
2023/06/02 04:54:49;;;;;;;3.78;1.73;;;21.60;79.00;;;;;;5097967;28;20193;-84
2023/06/02 04:57:17;;;;;;;2.03;1.17;;;21.70;78.90;;;;;;5090659;28;20214;-82
2023/06/02 04:59:46;;;;;;;2.50;1.70;;;21.70;78.80;;;;;;5101147;28;20194;-82
2023/06/02 05:02:15;;;;;;;4.22;1.75;;;21.80;78.70;;;;;;5102859;28;20639;-82
2023/06/02 05:04:44;;;;;;;2.60;1.65;;;21.90;78.70;;;;;;5092401;28;20190;-83
2023/06/02 05:07:12;;;;;;;2.63;2.10;;;21.90;78.90;;;;;;5106453;27;20656;-83
2023/06/02 05:09:42;;;;;;;6.13;2.70;;;22.00;79.00;;;;;;5099904;27;20203;-82
2023/06/02 05:12:11;;;;;;;5.53;2.90;;;22.10;78.70;;;;;;5094328;28;20228;-83
2023/06/02 05:14:40;;;;;;;3.92;1.92;;;22.10;78.80;;;;;;5094782;28;20197;-82
2023/06/02 05:17:08;;;;;;;4.15;2.67;;;22.20;78.70;;;;;;5107008;27;20303;-82
2023/06/02 05:19:37;;;;;;;6.25;2.45;;;22.20;78.60;;;;;;5098261;27;20208;-82
2023/06/02 05:22:05;;;;;;;4.22;2.08;;;22.30;78.90;;;;;;5103690;27;20193;-81
2023/06/02 05:24:34;;;;;;;5.03;2.63;;;22.30;78.60;;;;;;5090313;28;20656;-83
2023/06/02 05:27:05;;;;;;;4.03;1.98;;;22.40;78.50;;;;;;5104691;27;20655;-88
2023/06/02 05:29:35;;;;;;;3.35;1.90;;;22.50;78.50;;;;;;5125879;27;20198;-83
2023/06/02 05:32:03;;;;;;;8.68;3.65;;;22.60;78.40;;;;;;5111465;27;20202;-84
2023/06/02 05:34:33;;;;;;;4.00;2.10;;;22.70;78.40;;;;;;5120328;28;20201;-83
2023/06/02 05:37:03;;;;;;;5.82;2.83;;;22.70;78.40;;;;;;5129189;27;20240;-82
2023/06/02 05:39:31;;;;;;;3.55;2.22;;;22.80;78.50;;;;;;5112398;28;20197;-81
2023/06/02 05:42:00;;;;;;;4.82;2.30;;;22.90;78.50;;;;;;5097358;28;20190;-81
2023/06/02 05:44:29;;;;;;;4.05;2.33;;;23.00;78.40;;;;;;5093222;28;20190;-82
2023/06/02 05:46:58;;;;;;;4.72;2.50;;;23.00;78.20;;;;;;5096440;28;20222;-81
2023/06/02 05:49:26;;;;;;;4.32;1.75;;;23.10;78.20;;;;;;5099657;27;20204;-82
2023/06/02 05:51:54;;;;;;;3.45;2.08;;;23.20;78.00;;;;;;5097965;28;20201;-82
2023/06/02 05:54:23;;;;;;;3.33;2.05;;;23.30;77.90;;;;;;5112900;28;20195;-83
2023/06/02 05:56:51;;;;;;;3.63;1.58;;;23.40;77.90;;;;;;5104389;28;20687;-83
2023/06/02 05:59:19;;;;;;;4.38;2.03;;;23.50;77.80;;;;;;5097304;28;20217;-84
2023/06/02 06:01:49;;;;;;;7.30;2.67;;;23.60;77.80;;;;;;5099710;28;20288;-84
2023/06/02 06:04:17;;;;;;;3.30;2.13;;;23.60;77.50;;;;;;5098267;27;20204;-84
2023/06/02 06:06:46;;;;;;;4.20;2.60;;;23.70;77.20;;;;;;5097713;28;20197;-84
2023/06/02 06:09:15;;;;;;;5.15;2.70;;;23.80;77.10;;;;;;5104935;27;20217;-86
2023/06/02 06:11:45;;;;;;;4.65;3.63;;;23.80;76.60;;;;;;5098126;27;20651;-82
2023/06/02 06:14:13;;;;;;;5.63;3.35;;;23.90;76.20;;;;;;5098179;28;20617;-82
2023/06/02 06:16:41;;;;;;;6.50;2.55;;;23.90;76.10;;;;;;5099744;28;20246;-81
2023/06/02 06:19:12;;;;;;;3.08;1.65;;;24.00;75.90;;;;;;5094549;28;20221;-82
2023/06/02 06:21:40;;;;;;;5.55;2.58;;;24.00;75.80;;;;;;5099616;27;20631;-84
2023/06/02 06:24:09;;;;;;;2.95;2.00;;;24.10;75.80;;;;;;5101102;28;20266;-84
2023/06/02 06:26:37;;;;;;;5.78;2.30;;;24.20;75.70;;;;;;5098034;27;20186;-85
2023/06/02 06:29:06;;;;;;;3.75;1.95;;;24.30;75.50;;;;;;5103018;27;20189;-85
2023/06/02 06:31:34;;;;;;;7.65;2.97;;;24.40;75.40;;;;;;5100087;27;20675;-84
2023/06/02 06:34:02;;;;;;;4.32;2.35;;;24.50;75.10;;;;;;5095734;27;20316;-83
2023/06/02 06:36:33;;;;;;;3.38;1.90;;;24.50;75.00;;;;;;5105504;27;20209;-85
2023/06/02 06:39:02;;;;;;;5.97;2.22;;;24.60;75.00;;;;;;5098807;27;20224;-85
2023/06/02 06:41:30;;;;;;;4.05;2.85;;;24.70;74.80;;;;;;5106984;28;20895;-85
2023/06/02 06:44:01;;;;;;;4.88;2.78;;;24.80;74.50;;;;;;5096162;27;20185;-85
2023/06/02 06:46:29;;;;;;;4.30;2.15;;;24.80;73.60;;;;;;5097514;28;20211;-83
2023/06/02 06:48:57;;;;;;;5.18;2.33;;;24.90;73.30;;;;;;5099130;27;20205;-85
2023/06/02 06:51:26;;;;;;;3.28;2.10;;;24.90;72.60;;;;;;5109076;27;20220;-85
2023/06/02 06:53:56;;;;;;;3.20;1.67;;;25.00;72.70;;;;;;5096859;27;20203;-85
2023/06/02 06:56:25;;;;;;;5.40;2.60;;;25.00;72.30;;;;;;5100997;27;20192;-85
2023/06/02 06:58:53;;;;;;;3.78;2.25;;;25.20;72.40;;;;;;5108699;27;20679;-84
2023/06/02 07:01:22;;;;;;;3.63;2.08;;;25.20;71.90;;;;;;5108525;27;20556;-84
2023/06/02 07:03:50;;;;;;;3.85;1.40;;;25.30;72.10;;;;;;5106874;27;20231;-84
2023/06/02 07:06:19;;;;;;;3.97;2.17;;;25.30;71.90;;;;;;5094655;28;20204;-83
2023/06/02 07:08:47;;;;;;;4.25;1.60;;;25.40;71.90;;;;;;5100796;27;20193;-85
2023/06/02 07:11:17;;;;;;;3.10;1.58;;;25.50;71.50;;;;;;5109498;27;20193;-85
2023/06/02 07:13:45;;;;;;;4.35;2.10;;;25.60;71.00;;;;;;5115764;27;20608;-87
2023/06/02 07:16:14;;;;;;;1.55;1.35;;;25.60;68.90;;;;;;5104393;27;20656;-86
2023/06/02 07:18:42;;;;;;;5.50;2.00;;;25.60;68.10;;;;;;5104954;27;20213;-85
2023/06/02 07:21:10;;;;;;;3.42;1.73;;;25.70;67.70;;;;;;5100354;28;20738;-86
2023/06/02 07:23:39;;;;;;;4.55;1.55;;;25.80;67.50;;;;;;5097156;27;20234;-86
2023/06/02 07:26:07;;;;;;;2.70;1.63;;;25.80;67.90;;;;;;5098883;27;20203;-85
2023/06/02 07:28:38;;;;;;;5.97;1.83;;;25.90;68.20;;;;;;5114830;27;20224;-85
2023/06/02 07:31:07;;;;;;;2.15;1.42;;;25.90;67.90;;;;;;5105956;27;20182;-85
2023/06/02 07:33:38;;;;;;;5.30;1.70;;;26.00;67.60;;;;;;5101474;27;20200;-86
2023/06/02 07:36:07;;;;;;;1.95;1.13;;;26.10;67.80;;;;;;5095460;27;20193;-86
2023/06/02 07:38:35;;;;;;;3.72;1.63;;;26.20;67.70;;;;;;5114636;27;20700;-86
2023/06/02 07:41:04;;;;;;;3.13;1.73;;;26.20;67.10;;;;;;5101753;27;20197;-85
2023/06/02 07:43:33;;;;;;;2.88;2.00;;;26.30;66.80;;;;;;5101009;27;20206;-87
2023/06/02 07:46:03;;;;;;;3.15;1.38;;;26.30;64.60;;;;;;5096340;27;20190;-84
2023/06/02 07:48:32;;;;;;;2.03;1.13;;;26.30;64.00;;;;;;5100698;27;20355;-86
2023/06/02 07:51:00;;;;;;;2.13;1.23;;;26.30;62.80;;;;;;5096346;27;20186;-85
2023/06/02 07:53:29;;;;;;;4.15;1.80;;;26.40;63.20;;;;;;5102588;27;20201;-92
2023/06/02 07:55:57;;;;;;;2.70;1.67;;;26.50;63.40;;;;;;5100210;27;20557;-82
2023/06/02 07:58:26;;;;;;;1.73;1.42;;;26.50;63.40;;;;;;5099749;27;20287;-84
2023/06/02 08:00:55;;;;;;;4.50;2.30;;;26.50;63.40;;;;;;5100087;27;20193;-83
2023/06/02 08:03:25;;;;;;;2.40;1.50;;;26.60;63.60;;;;;;5100807;28;20293;-90
2023/06/02 08:05:53;;;;;;;5.15;1.65;;;26.60;63.80;;;;;;5098136;27;20263;-82
2023/06/02 08:08:22;;;;;;;2.72;1.80;;;26.70;63.40;;;;;;5102038;28;20197;-84
2023/06/02 08:10:50;;;;;;;1.80;1.30;;;26.70;61.60;;;;;;5104311;27;20184;-85
2023/06/02 08:13:18;;;;;;;1.77;1.25;;;26.70;61.70;;;;;;5096249;27;20197;-85
2023/06/02 08:15:47;;;;;;;3.13;1.80;;;26.80;62.10;;;;;;5101759;28;20193;-84
2023/06/02 08:18:37;;;;;;;1.73;1.27;;;26.90;61.90;;;;;;5113247;27;20203;-87
2023/06/02 08:21:06;;;;;;;2.45;1.70;;;26.90;61.90;;;;;;5099626;27;20194;-85
2023/06/02 08:23:35;;;;;;;3.42;1.55;;;27.00;61.70;;;;;;5109758;28;20395;-86
2023/06/02 08:26:03;;;;;;;4.18;1.77;;;27.00;61.60;;;;;;5106960;27;20572;-86
2023/06/02 08:28:33;;;;;;;2.85;1.58;;;27.10;61.00;;;;;;5113040;27;20189;-87
2023/06/02 08:31:01;;;;;;;2.47;1.60;;;27.10;61.10;;;;;;5105783;28;20244;-88
2023/06/02 08:33:33;;;;;;;4.95;2.45;;;27.20;60.70;;;;;;5093115;27;20531;-86
2023/06/02 08:36:06;;;;;;;1.70;1.20;;;27.30;60.20;;;;;;5101606;27;20193;-82
2023/06/02 08:38:37;;;;;;;2.80;1.83;;;27.20;59.50;;;;;;5101801;27;20234;-84
2023/06/02 08:41:12;;;;;;;2.90;1.30;;;27.30;59.50;;;;;;5094207;27;20248;-85
2023/06/02 08:43:40;;;;;;;2.28;1.35;;;27.30;59.20;;;;;;5098573;27;20224;-83
2023/06/02 08:46:14;;;;;;;4.82;2.00;;;27.40;58.70;;;;;;5104440;27;20197;-84
2023/06/02 08:48:46;;;;;;;2.58;1.42;;;27.40;58.80;;;;;;5096785;27;20345;-84
2023/06/02 08:51:22;;;;;;;2.28;1.40;;;27.40;58.80;;;;;;5101222;27;20200;-86
2023/06/02 08:53:51;;;;;;;3.38;1.77;;;27.50;58.90;;;;;;5105113;27;20195;-82
2023/06/02 08:56:19;;;;;;;3.42;1.60;;;27.50;58.70;;;;;;5116099;27;20245;-85
2023/06/02 08:58:48;;;;;;;2.17;1.35;;;27.50;58.90;;;;;;5104056;27;20197;-84
2023/06/02 09:01:16;;;;;;;3.15;1.50;;;27.60;59.10;;;;;;5093888;28;20202;-83
2023/06/02 09:03:48;;;;;;;1.38;1.13;;;27.70;57.60;;;;;;5108983;27;20249;-87
2023/06/02 09:06:23;;;;;;;2.40;1.60;;;27.60;56.90;;;;;;5095716;27;20637;-87
2023/06/02 09:08:59;;;;;;;2.50;1.40;;;27.70;57.00;;;;;;5089692;28;20208;-86
2023/06/02 09:11:28;;;;;;;2.35;1.27;;;27.70;56.20;;;;;;5093951;27;20238;-83
2023/06/02 09:13:57;;;;;;;1.73;1.02;;;27.70;56.60;;;;;;5094626;28;20194;-85
2023/06/02 09:16:37;;;;;;;2.58;1.25;;;27.80;56.40;;;;;;5093713;28;20732;-84
2023/06/02 09:19:06;;;;;;;2.17;1.27;;;27.90;56.60;;;;;;5094749;28;20185;-86
2023/06/02 09:21:37;;;;;;;2.20;1.20;;;28.00;56.90;;;;;;5090058;28;20198;-83
2023/06/02 09:24:06;;;;;;;2.55;1.23;;;28.00;56.70;;;;;;5095381;28;20193;-84
2023/06/02 09:26:37;;;;;;;2.17;1.23;;;28.00;55.90;;;;;;5096783;28;20197;-83
2023/06/02 09:29:08;;;;;;;2.42;1.38;;;28.00;54.70;;;;;;5093286;28;20246;-84
2023/06/02 09:31:47;;;;;;;2.22;1.25;;;28.00;55.10;;;;;;5095428;28;20197;-83
2023/06/02 09:34:17;;;;;;;2.30;1.50;;;28.10;55.20;;;;;;5092822;28;20225;-82
2023/06/02 09:36:48;;;;;;;3.08;1.27;;;28.10;55.60;;;;;;5095332;28;20193;-82
2023/06/02 09:39:32;;;;;;;2.92;1.38;;;28.20;56.10;;;;;;5098648;28;20193;-83
2023/06/02 09:42:00;;;;;;;1.25;0.98;;;28.20;54.90;;;;;;5095154;28;20245;-84
2023/06/02 09:44:29;;;;;;;2.15;0.95;;;28.30;54.50;;;;;;5093282;28;20277;-84
2023/06/02 09:46:58;;;;;;;2.15;0.88;;;28.40;54.90;;;;;;5090025;28;20217;-84
2023/06/02 09:49:39;;;;;;;3.22;1.67;;;28.40;55.00;;;;;;5099179;28;20190;-84
2023/06/02 09:52:16;;;;;;;1.48;0.98;;;28.40;54.10;;;;;;5096495;28;20189;-84
2023/06/02 09:54:45;;;;;;;1.92;1.00;;;28.50;53.40;;;;;;5090865;28;20261;-85
2023/06/02 09:57:15;;;;;;;1.55;1.20;;;28.60;54.00;;;;;;5096029;28;20220;-87
2023/06/02 09:59:44;;;;;;;1.70;1.02;;;28.60;53.40;;;;;;5094814;28;20513;-85
2023/06/02 10:02:14;;;;;;;2.65;1.08;;;28.60;51.70;;;;;;5094356;28;20304;-84
2023/06/02 10:04:42;;;;;;;2.88;1.48;;;28.70;51.90;;;;;;5098127;28;20831;-85
2023/06/02 10:07:26;;;;;;;7.07;1.48;;;28.70;51.80;;;;;;5095414;28;21657;-85
2023/06/02 10:10:14;;;;;;;3.35;1.33;;;28.80;52.20;;;;;;5091994;28;20194;-85
2023/06/02 10:12:59;;;;;;;2.45;0.88;;;28.90;52.10;;;;;;5095172;28;20280;-85
2023/06/02 10:15:54;;;;;;;1.05;0.75;;;28.90;51.70;;;;;;5094508;28;20289;-86
2023/06/02 10:18:38;;;;;;;1.23;1.00;;;28.90;49.40;;;;;;5100560;28;20654;-86
2023/06/02 10:21:16;;;;;;;2.28;1.48;;;28.90;49.30;;;;;;5095308;28;20562;-86
2023/06/02 10:23:54;;;;;;;2.50;1.60;;;29.00;50.10;;;;;;5101596;28;20212;-85
2023/06/02 10:26:43;;;;;;;2.25;1.27;;;29.10;50.90;;;;;;5094879;28;20228;-86
2023/06/02 10:29:15;;;;;;;2.78;1.65;;;29.20;52.60;;;;;;5092757;28;20189;-86
2023/06/02 10:31:44;;;;;;;1.70;1.30;;;29.20;51.60;;;;;;5095113;28;20201;-87
2023/06/02 10:34:40;;;;;;;2.55;1.40;;;29.20;51.40;;;;;;5101424;28;20226;-88
2023/06/02 10:37:19;;;;;;;1.30;1.02;;;29.20;51.40;;;;;;5095529;28;20185;-83
2023/06/02 10:39:54;;;;;;;4.32;1.42;;;29.30;51.70;;;;;;5092898;28;20671;-86
2023/06/02 10:42:24;;;;;;;1.83;0.90;;;29.40;51.70;;;;;;5100214;28;20184;-85
2023/06/02 10:44:54;;;;;;;2.03;1.10;;;29.50;51.60;;;;;;5100991;28;20197;-84
2023/06/02 10:47:38;;;;;;;1.65;1.38;;;29.60;51.50;;;;;;5095602;28;20218;-83
2023/06/02 10:50:09;;;;;;;1.83;1.25;;;29.60;51.00;;;;;;5100834;28;20189;-89
2023/06/02 10:53:15;;;;;;;1.73;1.00;;;29.70;51.40;;;;;;5103912;27;20727;-86
2023/06/02 10:55:45;;;;;;;1.20;0.70;;;29.70;50.30;;;;;;5044921;28;20203;-86
2023/06/02 10:58:15;;;;;;;2.10;1.33;;;29.80;50.20;;;;;;5039173;28;20192;-83
2023/06/02 11:00:49;;;;;;;4.22;0.93;;;29.80;50.30;;;;;;5066372;27;20255;-82
2023/06/02 11:03:35;;;;;;;2.30;1.65;;;29.90;50.50;;;;;;5099847;27;20212;-87
2023/06/02 11:06:22;;;;;;;1.65;1.08;;;30.00;50.70;;;;;;5103026;27;20228;-84
2023/06/02 11:08:53;;;;;;;1.52;1.20;;;29.90;50.90;;;;;;5095578;27;20563;-85
2023/06/02 11:11:54;;;;;;;1.10;0.77;;;29.80;50.90;;;;;;5094724;27;20287;-85
2023/06/02 11:14:23;;;;;;;1.50;1.05;;;29.90;50.50;;;;;;5097305;28;20185;-83
2023/06/02 11:17:31;;;;;;;1.55;1.00;;;29.90;50.60;;;;;;5100519;27;20200;-85
2023/06/02 11:20:00;;;;;;;2.13;1.30;;;30.00;50.90;;;;;;5018255;28;20207;-85
2023/06/02 11:22:28;;;;;;;1.58;1.20;;;30.00;50.50;;;;;;5020544;28;20220;-85
2023/06/02 11:24:57;;;;;;;1.20;0.85;;;30.10;50.70;;;;;;5061451;27;20205;-83
2023/06/02 11:27:41;;;;;;;1.35;0.82;;;30.10;50.90;;;;;;5093620;27;20292;-84
2023/06/02 11:30:15;;;;;;;2.00;1.35;;;30.20;50.50;;;;;;5104173;27;20603;-84
2023/06/02 11:32:46;;;;;;;3.72;1.20;;;30.00;50.10;;;;;;5098249;28;20193;-84
2023/06/02 11:35:16;;;;;;;3.45;1.40;;;29.90;50.20;;;;;;5096172;28;20575;-84
2023/06/02 11:37:44;;;;;;;2.53;0.93;;;29.80;50.30;;;;;;5091602;28;20224;-84
2023/06/02 11:40:13;;;;;;;1.27;0.98;;;29.80;50.30;;;;;;5098910;27;20185;-83
2023/06/02 11:42:44;;;;;;;1.35;0.90;;;29.90;50.30;;;;;;5104062;28;20189;-84
2023/06/02 11:45:21;;;;;;;2.05;0.98;;;30.00;50.40;;;;;;5097793;28;20276;-84
2023/06/02 11:47:57;;;;;;;4.20;2.03;;;30.10;50.80;;;;;;5099112;28;20220;-85
2023/06/02 11:50:26;;;;;;;2.63;1.17;;;30.20;50.80;;;;;;5092791;28;20638;-84
2023/06/02 11:52:55;;;;;;;2.35;1.48;;;30.30;50.70;;;;;;5095905;28;20189;-85
2023/06/02 11:55:27;;;;;;;1.40;1.13;;;30.40;50.60;;;;;;5098921;28;20216;-85
2023/06/02 11:58:26;;;;;;;2.50;1.15;;;30.50;50.30;;;;;;5100254;27;20192;-84
2023/06/02 12:01:07;;;;;;;1.80;1.17;;;30.50;50.20;;;;;;5093840;28;20224;-84
2023/06/02 12:03:36;;;;;;;1.73;0.90;;;30.60;50.20;;;;;;5099885;28;20220;-85
2023/06/02 12:06:14;;;;;;;4.88;2.10;;;30.50;48.60;;;;;;5100021;28;20277;-86
2023/06/02 12:08:43;;;;;;;1.10;1.00;;;30.60;49.00;;;;;;5097559;28;20598;-85
2023/06/02 12:11:16;;;;;;;1.85;1.10;;;30.60;48.40;;;;;;5098137;28;20194;-85
2023/06/02 12:13:57;;;;;;;3.75;1.30;;;30.60;49.00;;;;;;5099136;28;20189;-85
2023/06/02 12:16:27;;;;;;;2.42;1.00;;;30.60;48.80;;;;;;5103155;28;20316;-84
2023/06/02 12:18:56;;;;;;;1.88;1.33;;;30.70;49.40;;;;;;5094599;28;20239;-85
2023/06/02 12:21:27;;;;;;;2.72;1.23;;;30.80;49.40;;;;;;5097380;28;20227;-85
2023/06/02 12:23:56;;;;;;;2.20;0.98;;;30.80;49.00;;;;;;5092566;28;20197;-86
2023/06/02 12:26:26;;;;;;;2.47;1.17;;;30.90;49.70;;;;;;5102066;28;20242;-87
2023/06/02 12:28:56;;;;;;;1.85;1.15;;;30.90;49.30;;;;;;5106430;28;20186;-85
2023/06/02 12:31:27;;;;;;;2.75;1.20;;;31.00;49.70;;;;;;5099362;28;20192;-87
2023/06/02 12:33:55;;;;;;;1.25;0.82;;;31.00;49.20;;;;;;5098197;27;20194;-86
2023/06/02 12:36:24;;;;;;;3.58;1.10;;;31.00;49.00;;;;;;5093654;28;20233;-86
2023/06/02 12:38:52;;;;;;;2.85;1.58;;;31.00;48.90;;;;;;5102243;28;20189;-84
2023/06/02 12:41:21;;;;;;;3.00;1.40;;;30.90;49.10;;;;;;5098617;27;20635;-84
2023/06/02 12:43:49;;;;;;;3.22;1.65;;;30.80;49.20;;;;;;5096043;28;20204;-82
2023/06/02 12:46:18;;;;;;;2.08;0.98;;;30.70;48.70;;;;;;5094961;28;20190;-84
2023/06/02 12:48:48;;;;;;;2.17;1.00;;;30.80;49.00;;;;;;5091280;28;20306;-83
2023/06/02 12:51:16;;;;;;;1.67;1.13;;;30.90;49.20;;;;;;5095736;28;20820;-84
2023/06/02 12:53:45;;;;;;;4.25;1.85;;;31.00;49.60;;;;;;5089423;28;20201;-83
2023/06/02 12:56:15;;;;;;;2.10;1.10;;;31.20;49.70;;;;;;5099339;28;20212;-86
2023/06/02 12:58:43;;;;;;;1.98;1.08;;;31.30;49.30;;;;;;5114127;27;20190;-86
2023/06/02 13:01:11;;;;;;;5.20;0.93;;;31.30;49.20;;;;;;5095659;27;20220;-86
2023/06/02 13:03:42;;;;;;;1.33;1.10;;;31.30;48.30;;;;;;5106550;28;20196;-85
2023/06/02 13:06:12;;;;;;;1.70;1.05;;;31.30;48.30;;;;;;5111370;27;20224;-85